createdAt,value
2022-08-29T00:00:18.508Z,100034.31
2022-08-29T00:01:21.306Z,100032.84
2022-08-29T00:02:24.764Z,100018.63
2022-08-29T00:03:27.465Z,100036.53
2022-08-29T00:04:31.806Z,100034.81
2022-08-29T00:05:36.124Z,100035.91
2022-08-29T00:06:37.831Z,100028.03
2022-08-29T00:07:39.445Z,100033.44
2022-08-29T00:08:41.067Z,100031.84
2022-08-29T00:09:42.825Z,100032.03
2022-08-29T00:10:44.622Z,100034.78
2022-08-29T00:11:46.588Z,100035.72
2022-08-29T00:12:48.824Z,100033.28
2022-08-29T00:13:50.511Z,100023.03
2022-08-29T00:14:52.004Z,100042.81
2022-08-29T00:15:53.575Z,100022.09
2022-08-29T00:16:55.105Z,100038.75
2022-08-29T00:17:56.698Z,100032.31
2022-08-29T00:18:58.410Z,100029.69
2022-08-29T00:19:59.968Z,100027.91
2022-08-29T00:21:02.505Z,100040.19
2022-08-29T00:22:03.987Z,100034.53
2022-08-29T00:23:07.074Z,100034.53
2022-08-29T00:24:08.925Z,100039.63
2022-08-29T00:25:12.552Z,100048.56
2022-08-29T00:26:14.194Z,100041.50
2022-08-29T00:27:16.153Z,100043.13
2022-08-29T00:28:17.725Z,99975.72
2022-08-29T00:29:19.240Z,100023.09
2022-08-29T00:30:22.134Z,100041.22
2022-08-29T00:31:23.654Z,100026.25
2022-08-29T00:32:25.500Z,100047.63
2022-08-29T00:33:27.116Z,100044.22
2022-08-29T00:34:28.623Z,100007.94
2022-08-29T00:35:36.203Z,100033.97
2022-08-29T00:36:37.839Z,100022.31
2022-08-29T00:37:40.563Z,100031.91
2022-08-29T00:38:42.202Z,100039.75
2022-08-29T00:39:44.912Z,100033.81
2022-08-29T00:40:51.396Z,100033.97
2022-08-29T00:41:53.641Z,100015.59
2022-08-29T00:42:55.536Z,100035.03
2022-08-29T00:43:57.079Z,100021.44
2022-08-29T00:44:58.610Z,100030.97
2022-08-29T00:46:11.826Z,100000.53
2022-08-29T00:47:19.508Z,100024.56
2022-08-29T00:48:21.457Z,100018.63
2022-08-29T00:49:23.154Z,100035.56
2022-08-29T00:50:40.877Z,100045.38
2022-08-29T00:51:42.461Z,100042.09
2022-08-29T00:52:48.002Z,100045.66
2022-08-29T00:53:57.679Z,100045.09
2022-08-29T00:55:02.278Z,100048.88
2022-08-29T00:56:07.027Z,100046.53
2022-08-29T00:57:09.412Z,100012.03
2022-08-29T00:58:18.179Z,100027.41
2022-08-29T00:59:28.246Z,100046.91
2022-08-29T01:00:31.836Z,100047.94
2022-08-29T01:01:33.463Z,100047.38
2022-08-29T01:02:40.262Z,100042.00
2022-08-29T01:03:43.003Z,100044.00
2022-08-29T01:04:45.632Z,100038.13
2022-08-29T01:05:48.633Z,100027.97
2022-08-29T01:06:51.578Z,100045.47
2022-08-29T01:07:53.272Z,100051.44
2022-08-29T01:08:57.762Z,100052.34
2022-08-29T01:10:00.261Z,100056.03
2022-08-29T01:11:36.433Z,100053.66
2022-08-29T01:12:38.405Z,100042.81
2022-08-29T01:13:44.390Z,100030.88
2022-08-29T01:14:52.539Z,100046.13
2022-08-29T01:15:57.015Z,100049.06
2022-08-29T01:16:59.560Z,100036.41
2022-08-29T01:18:03.759Z,100061.66
2022-08-29T01:19:24.301Z,100063.38
2022-08-29T01:20:32.270Z,100029.34
2022-08-29T01:21:55.869Z,100053.16
2022-08-29T01:23:06.281Z,100050.63
2022-08-29T01:24:35.420Z,100046.38
2022-08-29T01:25:40.964Z,100049.94
2022-08-29T01:26:45.388Z,100058.81
2022-08-29T01:27:52.622Z,100049.03
2022-08-29T01:28:54.625Z,100053.44
2022-08-29T01:29:57.018Z,100033.34
2022-08-29T01:31:01.182Z,100053.72
2022-08-29T01:32:03.185Z,100048.81
2022-08-29T01:33:04.966Z,100058.41
2022-08-29T01:34:06.694Z,100017.75
2022-08-29T01:35:08.959Z,100059.53
2022-08-29T01:36:14.126Z,100071.78
2022-08-29T01:37:17.032Z,100053.69
2022-08-29T01:38:27.643Z,100056.16
2022-08-29T01:39:36.341Z,100058.94
2022-08-29T01:40:38.275Z,100046.72
2022-08-29T01:41:41.712Z,100029.88
2022-08-29T01:42:44.018Z,100047.78
2022-08-29T01:43:49.123Z,100063.59
2022-08-29T01:44:53.450Z,100030.34
2022-08-29T01:45:56.298Z,100059.72
2022-08-29T01:47:02.728Z,100055.97
2022-08-29T01:48:05.109Z,100063.81
2022-08-29T01:49:09.793Z,100065.75
2022-08-29T01:50:14.382Z,100062.47
2022-08-29T01:51:16.372Z,100054.88
2022-08-29T01:52:18.547Z,100064.41
2022-08-29T01:53:20.018Z,100055.69
2022-08-29T01:54:21.810Z,100061.28
2022-08-29T01:55:25.275Z,100049.50
2022-08-29T01:56:31.021Z,100068.16
2022-08-29T01:57:33.181Z,100034.31
2022-08-29T01:58:34.757Z,100063.31
2022-08-29T01:59:37.041Z,100064.09
2022-08-29T02:00:39.026Z,100067.56
2022-08-29T02:01:44.876Z,100067.66
2022-08-29T02:02:46.519Z,100068.78
2022-08-29T02:03:48.519Z,100065.19
2022-08-29T02:04:50.069Z,100062.94
2022-08-29T02:05:51.561Z,100026.25
2022-08-29T02:06:53.286Z,100061.91
2022-08-29T02:07:54.778Z,100066.31
2022-08-29T02:08:56.349Z,100078.56
2022-08-29T02:09:57.882Z,100052.31
2022-08-29T02:10:59.838Z,100074.38
2022-08-29T02:12:07.268Z,100070.06
2022-08-29T02:13:08.756Z,100011.31
2022-08-29T02:14:19.369Z,100047.81
2022-08-29T02:15:21.641Z,100064.69
2022-08-29T02:16:26.007Z,100073.56
2022-08-29T02:17:27.919Z,100073.47
2022-08-29T02:18:29.511Z,100063.34
2022-08-29T02:19:32.627Z,100073.56
2022-08-29T02:20:34.180Z,100070.13
2022-08-29T02:21:35.962Z,100079.84
2022-08-29T02:22:39.088Z,100054.84
2022-08-29T02:23:41.911Z,100070.41
2022-08-29T02:24:44.083Z,100068.72
2022-08-29T02:25:47.557Z,100058.69
2022-08-29T02:26:49.046Z,100067.97
2022-08-29T02:27:52.230Z,100068.22
2022-08-29T02:28:54.458Z,100012.31
2022-08-29T02:29:56.401Z,100070.09
2022-08-29T02:30:58.486Z,100060.06
2022-08-29T02:32:00.073Z,100073.53
2022-08-29T02:33:03.479Z,100020.16
2022-08-29T02:34:10.063Z,100074.56
2022-08-29T02:35:13.682Z,100026.84
2022-08-29T02:36:15.328Z,100074.00
2022-08-29T02:37:17.527Z,100077.28
2022-08-29T02:38:19.953Z,100038.06
2022-08-29T02:39:21.432Z,100029.41
2022-08-29T02:40:24.674Z,100075.69
2022-08-29T02:41:33.493Z,100062.88
2022-08-29T02:42:35.043Z,100076.69
2022-08-29T02:43:37.053Z,100069.00
2022-08-29T02:44:38.513Z,100047.84
2022-08-29T02:45:42.576Z,100075.06
2022-08-29T02:46:44.271Z,100038.13
2022-08-29T02:47:45.864Z,100075.94
2022-08-29T02:48:59.886Z,100074.25
2022-08-29T02:50:05.829Z,100078.72
2022-08-29T02:51:07.376Z,100084.09
2022-08-29T02:52:08.934Z,100078.16
2022-08-29T02:53:11.914Z,100071.34
2022-08-29T02:54:13.818Z,100072.91
2022-08-29T02:55:17.783Z,100076.53
2022-08-29T02:56:20.064Z,100079.06
2022-08-29T02:57:21.568Z,100077.41
2022-08-29T02:58:24.702Z,100058.63
2022-08-29T02:59:27.761Z,100077.31
2022-08-29T03:00:29.502Z,100068.28
2022-08-29T03:01:31.294Z,100067.34
2022-08-29T03:02:32.975Z,100079.22
2022-08-29T03:03:35.180Z,100081.81
2022-08-29T03:04:36.750Z,100083.38
2022-08-29T03:05:38.476Z,100076.03
2022-08-29T03:06:40.100Z,100053.16
2022-08-29T03:07:42.581Z,100081.19
2022-08-29T03:08:44.258Z,100101.34
2022-08-29T03:09:45.838Z,100066.16
2022-08-29T03:10:47.351Z,100084.00
2022-08-29T03:11:49.113Z,100085.97
2022-08-29T03:12:51.169Z,100080.94
2022-08-29T03:13:57.497Z,100053.75
2022-08-29T03:14:59.516Z,100093.09
2022-08-29T03:16:05.183Z,100083.38
2022-08-29T03:17:06.768Z,100085.19
2022-08-29T03:18:08.316Z,100056.19
2022-08-29T03:19:09.821Z,100060.38
2022-08-29T03:20:13.458Z,100087.88
2022-08-29T03:21:17.349Z,100072.69
2022-08-29T03:22:19.155Z,100059.88
2022-08-29T03:23:20.810Z,100076.84
2022-08-29T03:24:25.012Z,100077.81
2022-08-29T03:25:28.896Z,100089.25
2022-08-29T03:26:30.549Z,100074.47
2022-08-29T03:27:32.936Z,100066.97
2022-08-29T03:28:34.535Z,100074.72
2022-08-29T03:29:37.565Z,100072.09
2022-08-29T03:30:40.064Z,100050.13
2022-08-29T03:31:41.988Z,100072.09
2022-08-29T03:32:44.016Z,100069.53
2022-08-29T03:33:45.545Z,100080.13
2022-08-29T03:34:47.265Z,100055.06
2022-08-29T03:35:48.800Z,100075.72
2022-08-29T03:36:52.024Z,100054.63
2022-08-29T03:37:55.440Z,100045.88
2022-08-29T03:38:57.001Z,100032.31
2022-08-29T03:39:58.664Z,100084.56
2022-08-29T03:41:00.179Z,100074.88
2022-08-29T03:42:01.759Z,100067.38
2022-08-29T03:43:03.474Z,100010.28
2022-08-29T03:44:05.380Z,100077.59
2022-08-29T03:45:10.634Z,100068.03
2022-08-29T03:46:12.155Z,100063.97
2022-08-29T03:47:14.234Z,100064.75
2022-08-29T03:48:16.128Z,100057.66
2022-08-29T03:49:17.671Z,100076.72
2022-08-29T03:50:20.904Z,100070.56
2022-08-29T03:51:22.682Z,100042.38
2022-08-29T03:52:26.402Z,100068.28
2022-08-29T03:53:28.056Z,100069.78
2022-08-29T03:54:29.735Z,100062.06
2022-08-29T03:55:31.351Z,100066.31
2022-08-29T03:56:33.086Z,100040.81
2022-08-29T03:57:34.823Z,100073.34
2022-08-29T03:58:37.900Z,100069.03
2022-08-29T03:59:39.524Z,100070.66
2022-08-29T04:00:41.853Z,100063.13
2022-08-29T04:01:44.863Z,100071.66
2022-08-29T04:02:50.647Z,100075.22
2022-08-29T04:03:53.336Z,100069.09
2022-08-29T04:05:08.309Z,100070.06
2022-08-29T04:06:10.880Z,100078.06
2022-08-29T04:07:14.730Z,100074.66
2022-08-29T04:08:16.426Z,100077.38
2022-08-29T04:09:18.479Z,100066.56
2022-08-29T04:10:27.112Z,100062.84
2022-08-29T04:11:29.767Z,100036.72
2022-08-29T04:12:31.324Z,100029.69
2022-08-29T04:13:32.843Z,100056.28
2022-08-29T04:14:35.338Z,100042.94
2022-08-29T04:15:38.853Z,100071.03
2022-08-29T04:16:40.366Z,100101.84
2022-08-29T04:17:51.042Z,100052.69
2022-08-29T04:18:54.902Z,100070.44
2022-08-29T04:19:56.523Z,100044.28
2022-08-29T04:21:02.431Z,100071.69
2022-08-29T04:22:05.611Z,100080.19
2022-08-29T04:23:07.927Z,100045.09
2022-08-29T04:24:09.441Z,100048.25
2022-08-29T04:25:13.370Z,100049.13
2022-08-29T04:26:35.850Z,100067.81
2022-08-29T04:27:38.698Z,100043.47
2022-08-29T04:28:40.695Z,100073.06
2022-08-29T04:29:42.218Z,100046.56
2022-08-29T04:30:52.002Z,100063.59
2022-08-29T04:31:54.602Z,100068.13
2022-08-29T04:32:56.765Z,100077.66
2022-08-29T04:33:58.308Z,100047.28
2022-08-29T04:35:00.062Z,100081.19
2022-08-29T04:36:06.030Z,100068.13
2022-08-29T04:37:07.574Z,100062.09
2022-08-29T04:38:09.356Z,100068.38
2022-08-29T04:39:11.818Z,100052.31
2022-08-29T04:40:18.517Z,100067.53
2022-08-29T04:41:20.164Z,100092.72
2022-08-29T04:42:21.764Z,100045.34
2022-08-29T04:43:23.376Z,100045.44
2022-08-29T04:44:24.900Z,100070.84
2022-08-29T04:45:26.865Z,100065.75
2022-08-29T04:46:28.919Z,100058.78
2022-08-29T04:47:31.022Z,100040.31
2022-08-29T04:48:33.026Z,100041.28
2022-08-29T04:49:34.588Z,100069.28
2022-08-29T04:50:36.102Z,100087.31
2022-08-29T04:51:37.921Z,100083.75
2022-08-29T04:52:40.190Z,100060.81
2022-08-29T04:53:41.808Z,100094.09
2022-08-29T04:54:43.571Z,100088.94
2022-08-29T04:55:45.135Z,100071.25
2022-08-29T04:56:47.497Z,100086.41
2022-08-29T04:57:52.071Z,100080.94
2022-08-29T04:58:53.640Z,100016.84
2022-08-29T04:59:56.602Z,100085.16
2022-08-29T05:00:58.771Z,100092.84
2022-08-29T05:02:00.364Z,100085.38
2022-08-29T05:03:02.490Z,100069.84
2022-08-29T05:04:04.126Z,100073.25
2022-08-29T05:05:06.588Z,100100.75
2022-08-29T05:06:11.938Z,100104.22
2022-08-29T05:07:14.618Z,100110.34
2022-08-29T05:08:16.267Z,100096.50
2022-08-29T05:09:17.839Z,100098.88
2022-08-29T05:10:21.795Z,100094.03
2022-08-29T05:11:26.111Z,100088.69
2022-08-29T05:12:30.409Z,100081.03
2022-08-29T05:13:32.308Z,100096.72
2022-08-29T05:14:34.144Z,100097.81
2022-08-29T05:15:38.480Z,100088.69
2022-08-29T05:16:40.747Z,100106.56
2022-08-29T05:17:42.842Z,100080.03
2022-08-29T05:18:46.681Z,100090.94
2022-08-29T05:19:49.217Z,100110.53
2022-08-29T05:20:50.791Z,100091.16
2022-08-29T05:21:57.841Z,100107.16
2022-08-29T05:23:00.139Z,100112.09
2022-08-29T05:24:07.044Z,100117.31
2022-08-29T05:25:15.811Z,100099.97
2022-08-29T05:26:19.683Z,100110.19
2022-08-29T05:27:22.730Z,100107.41
2022-08-29T05:28:25.557Z,100119.34
2022-08-29T05:29:27.357Z,100116.72
2022-08-29T05:30:34.565Z,100115.47
2022-08-29T05:31:41.881Z,100113.63
2022-08-29T05:32:44.010Z,100101.72
2022-08-29T05:33:45.582Z,100129.84
2022-08-29T05:34:48.867Z,100131.31
2022-08-29T05:35:50.467Z,100120.59
2022-08-29T05:36:52.111Z,100119.78
2022-08-29T05:37:53.649Z,100090.63
2022-08-29T05:38:55.534Z,100121.72
2022-08-29T05:39:57.188Z,100113.75
2022-08-29T05:40:58.711Z,100109.31
2022-08-29T05:42:01.286Z,100124.34
2022-08-29T05:43:03.064Z,100124.13
2022-08-29T05:44:04.622Z,100119.00
2022-08-29T05:45:07.339Z,100116.13
2022-08-29T05:46:10.028Z,100122.66
2022-08-29T05:47:13.959Z,100129.44
2022-08-29T05:48:17.345Z,100123.91
2022-08-29T05:49:19.145Z,100123.59
2022-08-29T05:50:20.687Z,100092.06
2022-08-29T05:51:24.227Z,100125.88
2022-08-29T05:52:26.695Z,100126.63
2022-08-29T05:53:28.885Z,100116.94
2022-08-29T05:54:34.338Z,100119.91
2022-08-29T05:55:40.860Z,100110.28
2022-08-29T05:56:42.911Z,100125.34
2022-08-29T05:57:44.449Z,100125.75
2022-08-29T05:58:45.915Z,100124.47
2022-08-29T05:59:49.598Z,100122.31
2022-08-29T06:00:51.118Z,100127.59
2022-08-29T06:01:52.619Z,100108.28
2022-08-29T06:02:54.961Z,100125.09
2022-08-29T06:03:57.993Z,100128.69
2022-08-29T06:04:59.675Z,100122.69
2022-08-29T06:06:01.248Z,100115.13
2022-08-29T06:07:04.708Z,100134.66
2022-08-29T06:08:07.264Z,100121.75
2022-08-29T06:09:09.305Z,100124.50
2022-08-29T06:10:10.863Z,100114.81
2022-08-29T06:11:20.981Z,100134.50
2022-08-29T06:12:24.410Z,100127.59
2022-08-29T06:13:26.678Z,100115.03
2022-08-29T06:14:28.873Z,100133.31
2022-08-29T06:15:30.981Z,100133.66
2022-08-29T06:16:32.867Z,100136.88
2022-08-29T06:17:35.239Z,100133.50
2022-08-29T06:18:36.844Z,100137.50
2022-08-29T06:19:39.672Z,100120.41
2022-08-29T06:20:41.467Z,100139.44
2022-08-29T06:21:43.091Z,100116.19
2022-08-29T06:22:44.603Z,100131.97
2022-08-29T06:23:47.438Z,100124.91
2022-08-29T06:24:53.277Z,100114.00
2022-08-29T06:25:59.087Z,100128.25
2022-08-29T06:27:01.856Z,100140.56
2022-08-29T06:28:03.688Z,100109.78
2022-08-29T06:29:08.095Z,100137.47
2022-08-29T06:30:09.823Z,100134.19
2022-08-29T06:31:14.174Z,100139.25
2022-08-29T06:32:15.840Z,100126.53
2022-08-29T06:33:17.525Z,100128.44
2022-08-29T06:34:19.120Z,100134.09
2022-08-29T06:35:20.677Z,100123.69
2022-08-29T06:36:22.608Z,100120.94
2022-08-29T06:37:24.393Z,100135.88
2022-08-29T06:38:25.899Z,100131.97
2022-08-29T06:39:27.441Z,100102.69
2022-08-29T06:40:29.007Z,100119.72
2022-08-29T06:41:30.817Z,100139.84
2022-08-29T06:42:32.306Z,100128.16
2022-08-29T06:43:34.286Z,100139.94
2022-08-29T06:44:35.966Z,100134.53
2022-08-29T06:45:42.466Z,100141.75
2022-08-29T06:46:47.927Z,100140.28
2022-08-29T06:47:49.498Z,100142.50
2022-08-29T06:48:51.860Z,100147.22
2022-08-29T06:49:53.375Z,100119.47
2022-08-29T06:50:54.977Z,100140.75
2022-08-29T06:51:58.268Z,100146.00
2022-08-29T06:53:14.725Z,100145.16
2022-08-29T06:54:25.234Z,100151.38
2022-08-29T06:55:29.933Z,100147.47
2022-08-29T06:56:32.424Z,100144.94
2022-08-29T06:57:34.026Z,100147.66
2022-08-29T06:58:36.054Z,100106.72
2022-08-29T06:59:37.710Z,100152.13
2022-08-29T07:00:47.433Z,100149.28
2022-08-29T07:01:51.124Z,100136.59
2022-08-29T07:02:53.395Z,100159.22
2022-08-29T07:03:56.979Z,100153.91
2022-08-29T07:04:58.546Z,100125.75
2022-08-29T07:06:00.492Z,100156.78
2022-08-29T07:07:02.027Z,100154.94
2022-08-29T07:08:03.946Z,100165.13
2022-08-29T07:09:06.399Z,100145.19
2022-08-29T07:10:09.122Z,100162.94
2022-08-29T07:11:11.598Z,100165.91
2022-08-29T07:12:13.170Z,100161.16
2022-08-29T07:13:14.813Z,100151.59
2022-08-29T07:14:16.626Z,100155.31
2022-08-29T07:15:19.431Z,100154.38
2022-08-29T07:16:21.127Z,100165.81
2022-08-29T07:17:25.848Z,100163.94
2022-08-29T07:18:28.031Z,100158.09
2022-08-29T07:19:29.541Z,100157.03
2022-08-29T07:20:31.100Z,100158.22
2022-08-29T07:21:33.072Z,100154.38
2022-08-29T07:22:35.475Z,100165.28
2022-08-29T07:23:37.633Z,100153.53
2022-08-29T07:24:39.157Z,100155.97
2022-08-29T07:25:40.649Z,100155.44
2022-08-29T07:26:44.163Z,100162.34
2022-08-29T07:27:46.786Z,100144.25
2022-08-29T07:28:58.639Z,100137.00
2022-08-29T07:30:03.056Z,100165.03
2022-08-29T07:31:06.111Z,100161.81
2022-08-29T07:32:07.937Z,100165.00
2022-08-29T07:33:09.501Z,100166.97
2022-08-29T07:34:11.229Z,100162.28
2022-08-29T07:35:18.380Z,100161.44
2022-08-29T07:36:26.156Z,100134.84
2022-08-29T07:37:27.768Z,100170.47
2022-08-29T07:38:30.831Z,100165.88
2022-08-29T07:39:32.759Z,100141.41
2022-08-29T07:40:34.362Z,100127.94
2022-08-29T07:41:37.671Z,100175.38
2022-08-29T07:42:39.513Z,100167.19
2022-08-29T07:43:42.709Z,100140.94
2022-08-29T07:44:44.470Z,100154.66
2022-08-29T07:45:46.068Z,100132.56
2022-08-29T07:46:47.656Z,100166.44
2022-08-29T07:47:49.214Z,100160.66
2022-08-29T07:48:52.684Z,100142.63
2022-08-29T07:49:54.516Z,100153.63
2022-08-29T07:50:56.030Z,100145.53
2022-08-29T07:51:57.681Z,100154.81
2022-08-29T07:52:59.198Z,100134.84
2022-08-29T07:54:00.766Z,100130.63
2022-08-29T07:55:05.308Z,100147.28
2022-08-29T07:56:09.767Z,100150.91
2022-08-29T07:57:11.632Z,100154.47
2022-08-29T07:58:13.175Z,100149.22
2022-08-29T07:59:15.309Z,100150.13
2022-08-29T08:00:17.203Z,100139.38
2022-08-29T08:01:21.569Z,100144.72
2022-08-29T08:02:23.543Z,100138.91
2022-08-29T08:03:27.060Z,100125.81
2022-08-29T08:04:28.628Z,100144.59
2022-08-29T08:05:30.313Z,100147.28
2022-08-29T08:06:34.431Z,100117.72
2022-08-29T08:07:39.576Z,100129.91
2022-08-29T08:08:44.906Z,100139.25
2022-08-29T08:09:48.398Z,100148.59
2022-08-29T08:10:52.145Z,100137.47
2022-08-29T08:11:54.111Z,100142.34
2022-08-29T08:12:55.636Z,100149.16
2022-08-29T08:13:57.812Z,100147.13
2022-08-29T08:14:59.491Z,100161.63
2022-08-29T08:16:05.882Z,100157.97
2022-08-29T08:17:07.408Z,100146.22
2022-08-29T08:18:09.118Z,100127.16
2022-08-29T08:19:10.715Z,100147.66
2022-08-29T08:20:12.389Z,100135.44
2022-08-29T08:21:14.365Z,100131.28
2022-08-29T08:22:15.987Z,100162.53
2022-08-29T08:23:19.029Z,100152.50
2022-08-29T08:24:21.296Z,100156.16
2022-08-29T08:25:24.404Z,100150.50
2022-08-29T08:26:26.338Z,100152.16
2022-08-29T08:27:27.976Z,100132.63
2022-08-29T08:28:30.591Z,100139.63
2022-08-29T08:29:32.148Z,100165.63
2022-08-29T08:30:35.752Z,100157.97
2022-08-29T08:31:42.962Z,100136.69
2022-08-29T08:32:48.020Z,100145.16
2022-08-29T08:33:51.959Z,100138.31
2022-08-29T08:34:54.302Z,100166.72
2022-08-29T08:35:57.261Z,100138.59
2022-08-29T08:36:59.023Z,100156.94
2022-08-29T08:38:01.891Z,100159.09
2022-08-29T08:39:03.682Z,100161.34
2022-08-29T08:40:06.613Z,100146.22
2022-08-29T08:41:27.537Z,100162.25
2022-08-29T08:42:44.011Z,100159.16
2022-08-29T08:43:51.934Z,100161.97
2022-08-29T08:45:06.732Z,100152.97
2022-08-29T08:46:08.423Z,100149.22
2022-08-29T08:47:12.643Z,100129.59
2022-08-29T08:48:30.926Z,100147.31
2022-08-29T08:49:32.366Z,100152.75
2022-08-29T08:50:43.267Z,100156.13
2022-08-29T08:51:51.003Z,100152.97
2022-08-29T08:53:07.352Z,100154.63
2022-08-29T08:54:20.101Z,100156.53
2022-08-29T08:55:41.378Z,100161.97
2022-08-29T08:56:46.863Z,100155.47
2022-08-29T08:58:09.180Z,100152.69
2022-08-29T08:59:18.574Z,100161.31
2022-08-29T09:00:20.474Z,100162.25
2022-08-29T09:01:31.470Z,100156.00
2022-08-29T09:02:35.214Z,100163.50
2022-08-29T09:04:14.417Z,100158.69
2022-08-29T09:05:34.827Z,100157.25
2022-08-29T09:06:53.336Z,100156.88
2022-08-29T09:07:57.623Z,100152.03
2022-08-29T09:09:17.517Z,100146.47
2022-08-29T09:10:31.440Z,100152.84
2022-08-29T09:12:03.354Z,100138.16
2022-08-29T09:13:08.142Z,100143.88
2022-08-29T09:14:26.638Z,100148.16
2022-08-29T09:15:38.430Z,100148.28
2022-08-29T09:16:48.637Z,100142.22
2022-08-29T09:17:57.704Z,100111.25
2022-08-29T09:19:03.980Z,100138.34
2022-08-29T09:20:10.765Z,100145.56
2022-08-29T09:21:39.390Z,100134.56
2022-08-29T09:22:40.623Z,100139.59
2022-08-29T09:23:44.421Z,100144.34
2022-08-29T09:24:56.597Z,100144.16
2022-08-29T09:25:58.195Z,100122.41
2022-08-29T09:26:59.790Z,100142.88
2022-08-29T09:28:02.354Z,100110.38
2022-08-29T09:29:04.012Z,100126.09
2022-08-29T09:30:05.829Z,100133.56
2022-08-29T09:31:25.820Z,100143.50
2022-08-29T09:32:27.537Z,100131.16
2022-08-29T09:33:42.606Z,100141.81
2022-08-29T09:35:08.014Z,100140.19
2022-08-29T09:36:17.882Z,100125.69
2022-08-29T09:37:34.393Z,100133.78
2022-08-29T09:38:36.043Z,100137.69
2022-08-29T09:39:37.680Z,100141.13
2022-08-29T09:40:44.929Z,100140.97
2022-08-29T09:42:08.126Z,100146.06
2022-08-29T09:43:36.220Z,100118.81
2022-08-29T09:44:39.367Z,100147.84
2022-08-29T09:45:41.000Z,100139.38
2022-08-29T09:46:42.837Z,100141.53
2022-08-29T09:47:45.241Z,100118.19
2022-08-29T09:48:53.696Z,100138.38
2022-08-29T09:50:24.646Z,100130.47
2022-08-29T09:51:26.255Z,100125.25
2022-08-29T09:52:28.264Z,100110.72
2022-08-29T09:53:30.417Z,100133.97
2022-08-29T09:54:32.325Z,100125.66
2022-08-29T09:55:35.490Z,100124.16
2022-08-29T09:56:40.769Z,100123.91
2022-08-29T09:57:48.410Z,100122.94
2022-08-29T09:59:11.254Z,100114.03
2022-08-29T10:00:21.208Z,100118.84
2022-08-29T10:01:28.146Z,100119.72
2022-08-29T10:02:43.842Z,100089.25
2022-08-29T10:03:58.533Z,100107.53
2022-08-29T10:05:06.702Z,100112.50
2022-08-29T10:06:23.111Z,100104.59
2022-08-29T10:07:28.698Z,100094.16
2022-08-29T10:08:36.292Z,100111.16
2022-08-29T10:09:38.045Z,100108.59
2022-08-29T10:10:52.747Z,100113.78
2022-08-29T10:12:07.922Z,100112.63
2022-08-29T10:13:22.154Z,100115.94
2022-08-29T10:14:38.358Z,100123.00
2022-08-29T10:15:50.847Z,100103.50
2022-08-29T10:17:20.640Z,100103.72
2022-08-29T10:18:44.260Z,100102.34
2022-08-29T10:19:46.190Z,100112.00
2022-08-29T10:20:56.085Z,100116.75
2022-08-29T10:22:17.097Z,100110.38
2022-08-29T10:23:48.096Z,100111.28
2022-08-29T10:25:28.669Z,100106.53
2022-08-29T10:26:38.301Z,100102.91
2022-08-29T10:27:48.563Z,100088.75
2022-08-29T10:29:10.387Z,100104.34
2022-08-29T10:30:17.407Z,100106.31
2022-08-29T10:31:34.177Z,100104.41
2022-08-29T10:32:52.996Z,100107.81
2022-08-29T10:34:25.733Z,100106.09
2022-08-29T10:35:33.282Z,100097.34
2022-08-29T10:36:38.668Z,100093.88
2022-08-29T10:38:04.023Z,100104.19
2022-08-29T10:39:43.927Z,100103.88
2022-08-29T10:41:02.313Z,100065.66
2022-08-29T10:42:16.454Z,100101.00
2022-08-29T10:43:45.324Z,100093.41
2022-08-29T10:44:50.321Z,100103.59
2022-08-29T10:46:06.584Z,100088.06
2022-08-29T10:47:20.257Z,100089.66
2022-08-29T10:48:30.273Z,100098.59
2022-08-29T10:49:31.787Z,100083.19
2022-08-29T10:50:46.392Z,100084.50
2022-08-29T10:51:53.668Z,100087.75
2022-08-29T10:53:25.533Z,100079.72
2022-08-29T10:54:39.193Z,100086.41
2022-08-29T10:55:56.009Z,100073.34
2022-08-29T10:56:59.679Z,100088.84
2022-08-29T10:58:20.296Z,100061.09
2022-08-29T10:59:35.150Z,100081.84
2022-08-29T11:00:46.575Z,100093.13
2022-08-29T11:02:05.260Z,100080.31
2022-08-29T11:03:35.861Z,100084.50
2022-08-29T11:04:39.156Z,100083.97
2022-08-29T11:05:46.668Z,100088.19
2022-08-29T11:06:59.647Z,100082.81
2022-08-29T11:08:01.192Z,100084.06
2022-08-29T11:09:17.746Z,100088.03
2022-08-29T11:10:31.046Z,100083.78
2022-08-29T11:11:36.431Z,100078.25
2022-08-29T11:12:49.900Z,100084.22
2022-08-29T11:14:01.151Z,100080.69
2022-08-29T11:15:15.362Z,100073.44
2022-08-29T11:16:33.950Z,100068.50
2022-08-29T11:17:40.731Z,100047.28
2022-08-29T11:18:53.025Z,100048.00
2022-08-29T11:20:05.069Z,100071.81
2022-08-29T11:21:20.996Z,100066.25
2022-08-29T11:22:29.179Z,100064.50
2022-08-29T11:23:37.707Z,100065.66
2022-08-29T11:24:43.001Z,100042.66
2022-08-29T11:25:48.240Z,100066.63
2022-08-29T11:27:15.956Z,100064.03
2022-08-29T11:28:29.057Z,100067.88
2022-08-29T11:30:07.284Z,100054.13
2022-08-29T11:31:46.342Z,100056.38
2022-08-29T11:32:50.916Z,100050.44
2022-08-29T11:34:22.604Z,100044.13
2022-08-29T11:35:43.767Z,100055.88
2022-08-29T11:37:20.088Z,100050.13
2022-08-29T11:38:50.230Z,100052.19
2022-08-29T11:39:57.777Z,100050.31
2022-08-29T11:41:30.632Z,100056.38
2022-08-29T11:42:52.676Z,100048.41
2022-08-29T11:44:09.297Z,100054.00
2022-08-29T11:45:14.700Z,100030.69
2022-08-29T11:46:30.036Z,100047.25
2022-08-29T11:47:46.818Z,100042.34
2022-08-29T11:48:55.758Z,100045.97
2022-08-29T11:50:29.175Z,100042.94
2022-08-29T11:51:37.466Z,100039.50
2022-08-29T11:52:50.376Z,100017.50
2022-08-29T11:53:51.928Z,100030.56
2022-08-29T11:55:24.872Z,100028.03
2022-08-29T11:56:28.434Z,100033.88
2022-08-29T11:57:31.737Z,100043.94
2022-08-29T11:58:38.845Z,100039.13
2022-08-29T11:59:49.375Z,100040.53
2022-08-29T12:00:56.146Z,100034.16
2022-08-29T12:02:01.256Z,100012.88
2022-08-29T12:03:07.333Z,100024.78
2022-08-29T12:04:53.367Z,100028.06
2022-08-29T12:06:18.192Z,100005.28
2022-08-29T12:07:22.145Z,100027.56
2022-08-29T12:08:37.280Z,99996.28
2022-08-29T12:09:50.421Z,100015.53
2022-08-29T12:10:56.406Z,100031.25
2022-08-29T12:12:04.436Z,100022.34
2022-08-29T12:13:06.818Z,100014.09
2022-08-29T12:14:08.411Z,100019.06
2022-08-29T12:15:28.103Z,100026.25
2022-08-29T12:16:49.746Z,100020.44
2022-08-29T12:18:01.875Z,100017.13
2022-08-29T12:19:47.124Z,100023.44
2022-08-29T12:20:52.405Z,100019.56
2022-08-29T12:21:54.080Z,100020.91
2022-08-29T12:23:00.443Z,100027.25
2022-08-29T12:24:04.695Z,100022.69
2022-08-29T12:25:27.224Z,100024.13
2022-08-29T12:26:40.322Z,100018.69
2022-08-29T12:28:02.130Z,100015.19
2022-08-29T12:29:10.432Z,100010.22
2022-08-29T12:30:14.377Z,100000.22
2022-08-29T12:31:34.248Z,100014.72
2022-08-29T12:32:45.527Z,100015.72
2022-08-29T12:34:25.506Z,100011.78